createdAt,value
2022-08-12T00:02:04.867Z,2.42
2022-08-12T00:04:52.400Z,1.80
2022-08-12T00:07:38.439Z,2.10
2022-08-12T00:10:24.315Z,2.30
2022-08-12T00:13:10.366Z,2.70
2022-08-12T00:15:57.299Z,2.40
2022-08-12T00:18:43.290Z,2.00
2022-08-12T00:21:30.923Z,2.63
2022-08-12T00:24:17.032Z,2.65
2022-08-12T00:27:03.144Z,2.20
2022-08-12T00:29:49.118Z,2.28
2022-08-12T00:32:56.872Z,2.13
2022-08-12T00:35:40.764Z,2.45
2022-08-12T00:38:26.880Z,2.30
2022-08-12T00:41:13.432Z,2.28
2022-08-12T00:43:43.711Z,2.00
2022-08-12T00:46:29.405Z,2.50
2022-08-12T00:48:57.213Z,2.40
2022-08-12T00:51:45.342Z,2.30
2022-08-12T00:54:13.206Z,2.40
2022-08-12T00:56:40.583Z,2.53
2022-08-12T00:59:08.887Z,2.15
2022-08-12T01:02:11.508Z,2.35
2022-08-12T01:04:55.753Z,2.28
2022-08-12T01:07:43.762Z,2.13
2022-08-12T01:10:32.977Z,2.20
2022-08-12T01:13:18.482Z,2.33
2022-08-12T01:15:48.189Z,2.08
2022-08-12T01:18:16.361Z,2.00
2022-08-12T01:20:57.215Z,1.98
2022-08-12T01:23:24.358Z,2.45
2022-08-12T01:25:55.707Z,2.10
2022-08-12T01:28:24.891Z,2.55
2022-08-12T01:30:52.607Z,2.20
2022-08-12T01:33:22.151Z,2.28
2022-08-12T01:35:58.044Z,2.05
2022-08-12T01:38:36.559Z,2.65
2022-08-12T01:41:04.055Z,2.30
2022-08-12T01:43:31.976Z,2.33
2022-08-12T01:46:22.654Z,2.63
2022-08-12T01:48:59.940Z,2.55
2022-08-12T01:52:20.878Z,2.45
2022-08-12T01:54:15.406Z,2.35
2022-08-12T01:56:49.030Z,2.35
2022-08-12T01:59:56.832Z,2.00
2022-08-12T02:02:27.105Z,2.28
2022-08-12T02:05:15.560Z,2.30
2022-08-12T02:08:19.430Z,2.30
2022-08-12T02:11:11.874Z,2.25
2022-08-12T02:13:48.418Z,2.40
2022-08-12T02:16:25.862Z,2.10
2022-08-12T02:19:02.077Z,2.35
2022-08-12T02:21:32.701Z,2.22
2022-08-12T02:24:00.730Z,2.65
2022-08-12T02:26:30.213Z,2.30
2022-08-12T02:28:57.617Z,2.60
2022-08-12T02:31:27.164Z,1.92
2022-08-12T02:33:55.323Z,2.53
2022-08-12T02:36:22.730Z,3.20
2022-08-12T02:38:50.142Z,4.20
2022-08-12T02:41:21.450Z,9.20
2022-08-12T02:43:55.358Z,8.00
2022-08-12T02:46:32.557Z,4.53
2022-08-12T02:49:03.885Z,3.72
2022-08-12T02:51:42.359Z,3.20
2022-08-12T02:54:09.511Z,2.53
2022-08-12T02:56:38.262Z,2.72
2022-08-12T02:59:06.689Z,2.88
2022-08-12T03:01:35.630Z,2.72
2022-08-12T03:04:15.359Z,2.53
2022-08-12T03:06:52.198Z,2.33
2022-08-12T03:09:23.047Z,2.83
2022-08-12T03:11:58.379Z,2.97
2022-08-12T03:14:28.080Z,2.28
2022-08-12T03:17:14.465Z,2.40
2022-08-12T03:20:10.487Z,2.33
2022-08-12T03:22:32.114Z,2.50
2022-08-12T03:25:03.193Z,2.70
2022-08-12T03:27:31.862Z,2.53
2022-08-12T03:29:59.362Z,2.20
2022-08-12T03:32:36.163Z,2.33
2022-08-12T03:35:07.272Z,2.22
2022-08-12T03:37:35.231Z,2.28
2022-08-12T03:40:02.426Z,2.58
2022-08-12T03:42:41.528Z,2.50
2022-08-12T03:45:27.757Z,2.40
2022-08-12T03:48:18.902Z,2.40
2022-08-12T03:51:05.771Z,2.10
2022-08-12T03:53:52.116Z,2.30
2022-08-12T03:56:38.227Z,2.30
2022-08-12T03:59:25.292Z,2.35
2022-08-12T04:01:57.262Z,2.17
2022-08-12T04:04:29.498Z,2.60
2022-08-12T04:06:58.094Z,2.30
2022-08-12T04:09:25.542Z,2.80
2022-08-12T04:12:11.388Z,2.50
2022-08-12T04:14:38.810Z,2.67
2022-08-12T04:17:05.987Z,2.50
2022-08-12T04:19:33.721Z,2.40
2022-08-12T04:22:03.501Z,2.38
2022-08-12T04:24:34.926Z,2.72
2022-08-12T04:27:03.614Z,2.65
2022-08-12T04:30:29.514Z,2.83
2022-08-12T04:32:17.900Z,3.38
2022-08-12T04:34:45.117Z,3.08
2022-08-12T04:37:13.222Z,2.83
2022-08-12T04:39:40.889Z,2.78
2022-08-12T04:42:08.363Z,2.75
2022-08-12T04:44:35.495Z,2.22
2022-08-12T04:47:02.868Z,2.50
2022-08-12T04:49:31.010Z,2.88
2022-08-12T04:51:59.746Z,2.47
2022-08-12T04:54:27.729Z,2.13
2022-08-12T04:57:03.564Z,2.47
2022-08-12T04:59:32.614Z,2.10
2022-08-12T05:02:16.855Z,2.40
2022-08-12T05:04:47.991Z,2.53
2022-08-12T05:07:15.091Z,2.70
2022-08-12T05:10:00.362Z,2.47
2022-08-12T05:12:36.452Z,2.22
2022-08-12T05:15:16.070Z,2.55
2022-08-12T05:17:52.222Z,2.30
2022-08-12T05:20:22.920Z,2.70
2022-08-12T05:22:53.042Z,2.40
2022-08-12T05:25:24.211Z,2.38
2022-08-12T05:27:55.353Z,2.40
2022-08-12T05:30:26.879Z,2.35
2022-08-12T05:32:55.662Z,2.42
2022-08-12T05:35:27.315Z,2.38
2022-08-12T05:38:13.022Z,2.47
2022-08-12T05:40:41.136Z,2.28
2022-08-12T05:43:08.346Z,2.30
2022-08-12T05:45:35.551Z,2.20
2022-08-12T05:48:02.817Z,2.33
2022-08-12T05:50:30.031Z,2.58
2022-08-12T05:52:57.149Z,2.35
2022-08-12T05:55:28.138Z,2.28
2022-08-12T05:57:58.379Z,2.40
2022-08-12T06:00:26.193Z,2.35
2022-08-12T06:03:01.034Z,2.20
2022-08-12T06:05:29.189Z,2.20
2022-08-12T06:07:59.486Z,2.28
2022-08-12T06:10:31.765Z,1.98
2022-08-12T06:13:00.243Z,2.47
2022-08-12T06:15:27.432Z,2.20
2022-08-12T06:17:55.233Z,1.92
2022-08-12T06:20:29.847Z,2.10
2022-08-12T06:22:57.756Z,2.35
2022-08-12T06:25:27.749Z,2.00
2022-08-12T06:28:07.392Z,1.90
2022-08-12T06:30:39.084Z,2.20
2022-08-12T06:33:11.697Z,2.30
2022-08-12T06:35:50.302Z,2.40
2022-08-12T06:38:19.608Z,2.15
2022-08-12T06:41:06.744Z,3.72
2022-08-12T06:44:05.937Z,2.20
2022-08-12T06:46:36.753Z,3.97
2022-08-12T06:49:04.180Z,2.80
2022-08-12T06:51:32.487Z,2.08
2022-08-12T06:54:01.037Z,2.25
2022-08-12T06:56:46.331Z,1.90
2022-08-12T06:59:16.007Z,2.20
2022-08-12T07:01:50.759Z,2.00
2022-08-12T07:04:36.792Z,2.10
2022-08-12T07:07:09.733Z,2.08
2022-08-12T07:10:04.538Z,2.10
2022-08-12T07:12:28.423Z,1.90
2022-08-12T07:14:56.381Z,2.20
2022-08-12T07:17:23.476Z,1.98
2022-08-12T07:19:52.001Z,2.03
2022-08-12T07:22:19.402Z,2.13
2022-08-12T07:25:06.597Z,2.00
2022-08-12T07:27:40.798Z,1.75
2022-08-12T07:30:08.486Z,1.77
2022-08-12T07:32:35.704Z,2.20
2022-08-12T07:35:04.078Z,2.20
2022-08-12T07:37:31.493Z,1.92
2022-08-12T07:39:59.712Z,2.03
2022-08-12T07:42:28.409Z,1.90
2022-08-12T07:44:56.340Z,2.05
2022-08-12T07:47:23.837Z,1.75
2022-08-12T07:50:05.081Z,2.05
2022-08-12T07:52:34.878Z,2.10
2022-08-12T07:55:02.566Z,1.95
2022-08-12T07:57:29.698Z,2.58
2022-08-12T07:59:56.847Z,2.00
2022-08-12T08:02:26.919Z,2.00
2022-08-12T08:04:57.610Z,2.10
2022-08-12T08:07:27.337Z,1.95
2022-08-12T08:09:59.203Z,1.77
2022-08-12T08:12:49.510Z,1.92
2022-08-12T08:15:16.926Z,1.73
2022-08-12T08:17:59.543Z,1.90
2022-08-12T08:20:30.182Z,1.88
2022-08-12T08:22:58.283Z,1.80
2022-08-12T08:25:35.617Z,2.00
2022-08-12T08:28:05.140Z,2.00
2022-08-12T08:30:32.825Z,2.35
2022-08-12T08:33:00.183Z,1.80
2022-08-12T08:35:38.793Z,1.80
2022-08-12T08:38:14.899Z,2.00
2022-08-12T08:42:19.029Z,2.13
2022-08-12T08:44:06.115Z,2.35
2022-08-12T08:46:37.515Z,1.83
2022-08-12T08:49:05.408Z,2.15
2022-08-12T08:51:32.933Z,2.05
2022-08-12T08:54:00.070Z,1.67
2022-08-12T08:56:29.323Z,1.80
2022-08-12T08:58:57.541Z,1.50
2022-08-12T09:01:25.054Z,2.00
2022-08-12T09:05:09.006Z,1.70
2022-08-12T09:06:41.871Z,1.77
2022-08-12T09:09:14.649Z,1.70
2022-08-12T09:14:51.258Z,1.55
2022-08-12T09:17:22.198Z,1.80
2022-08-12T09:22:37.702Z,1.95
2022-08-12T09:25:06.988Z,1.67
2022-08-12T09:30:42.187Z,1.63
2022-08-12T09:33:14.757Z,1.80
2022-08-12T09:36:03.050Z,1.52
2022-08-12T09:38:33.480Z,1.60
2022-08-12T09:42:35.204Z,1.65
2022-08-12T09:44:38.294Z,1.65
2022-08-12T09:46:56.410Z,1.65
2022-08-12T09:49:24.976Z,1.60
2022-08-12T09:51:55.225Z,1.60
2022-08-12T09:54:32.787Z,1.40
2022-08-12T09:58:45.594Z,1.85
2022-08-12T10:00:17.454Z,1.48
2022-08-12T10:02:59.971Z,1.83
2022-08-12T10:06:11.880Z,1.80
2022-08-12T10:08:17.292Z,1.60
2022-08-12T10:11:20.002Z,1.23
2022-08-12T10:14:19.366Z,1.60
2022-08-12T10:16:59.838Z,1.92
2022-08-12T10:19:36.217Z,1.98
2022-08-12T10:22:17.206Z,1.77
2022-08-12T10:25:22.752Z,1.85
2022-08-12T10:28:16.336Z,1.60
2022-08-12T10:30:58.925Z,1.70
2022-08-12T10:33:30.972Z,1.75
2022-08-12T10:36:00.166Z,1.58
2022-08-12T10:38:38.348Z,1.85
2022-08-12T10:41:57.223Z,1.77
2022-08-12T10:44:17.387Z,2.05
2022-08-12T10:46:49.394Z,1.67
2022-08-12T10:50:02.569Z,1.67
2022-08-12T10:52:34.470Z,1.45
2022-08-12T10:54:55.935Z,1.65
2022-08-12T10:58:12.827Z,1.52
2022-08-12T11:00:34.600Z,1.58
2022-08-12T11:04:26.564Z,1.50
2022-08-12T11:07:06.492Z,1.73
2022-08-12T11:08:43.021Z,1.27
2022-08-12T11:11:17.954Z,1.50
2022-08-12T11:14:04.914Z,1.58
2022-08-12T11:16:33.358Z,1.70
2022-08-12T11:19:02.968Z,1.90
2022-08-12T11:21:56.622Z,1.67
2022-08-12T11:24:30.484Z,1.45
2022-08-12T11:27:00.586Z,1.60
2022-08-12T11:30:01.944Z,1.63
2022-08-12T11:32:16.047Z,1.48
2022-08-12T11:34:52.477Z,1.42
2022-08-12T11:37:25.577Z,1.60
2022-08-12T11:42:47.004Z,1.58
2022-08-12T11:45:16.433Z,1.50
2022-08-12T11:47:44.325Z,1.45
2022-08-12T11:50:19.605Z,1.75
2022-08-12T11:53:02.313Z,1.75
2022-08-12T11:55:30.028Z,1.60
2022-08-12T11:58:33.815Z,1.52
2022-08-12T12:03:44.032Z,1.60
2022-08-12T12:06:17.794Z,1.70
2022-08-12T12:08:51.013Z,1.73
2022-08-12T12:11:20.046Z,1.60
2022-08-12T12:14:07.253Z,1.50
2022-08-12T12:16:39.871Z,1.30
2022-08-12T12:19:08.725Z,1.48
2022-08-12T12:21:48.636Z,1.38
2022-08-12T12:24:21.859Z,1.58
2022-08-12T12:27:00.494Z,1.50
2022-08-12T12:30:18.970Z,1.50
2022-08-12T12:32:16.239Z,1.33
2022-08-12T12:35:13.755Z,1.73
2022-08-12T12:38:03.917Z,1.42
2022-08-12T12:40:17.752Z,1.45
2022-08-12T12:42:55.413Z,1.30
2022-08-12T12:45:26.111Z,1.20
2022-08-12T12:48:12.664Z,1.40
2022-08-12T12:50:45.173Z,1.60
2022-08-12T12:54:06.305Z,1.58
2022-08-12T12:56:13.095Z,1.45
2022-08-12T12:58:40.231Z,1.40
2022-08-12T13:01:25.502Z,1.60
2022-08-12T13:03:56.447Z,1.20
2022-08-12T13:06:32.006Z,1.50
2022-08-12T13:09:02.796Z,1.23
2022-08-12T13:11:41.148Z,1.40
2022-08-12T13:14:29.604Z,1.35
2022-08-12T13:17:02.389Z,1.38
2022-08-12T13:19:38.769Z,1.45
2022-08-12T13:22:23.567Z,1.52
2022-08-12T13:24:55.995Z,1.60
2022-08-12T13:27:34.581Z,1.20
2022-08-12T13:30:06.533Z,1.45
2022-08-12T13:32:34.187Z,1.20
2022-08-12T13:35:04.406Z,1.20
2022-08-12T13:37:55.100Z,1.40
2022-08-12T13:40:22.693Z,1.10
2022-08-12T13:42:52.871Z,1.30
2022-08-12T13:45:20.018Z,1.20
2022-08-12T13:47:55.462Z,0.95
2022-08-12T13:50:29.754Z,1.38
2022-08-12T13:52:57.179Z,1.02
2022-08-12T13:55:31.104Z,1.23
2022-08-12T13:58:00.092Z,1.40
2022-08-12T14:00:34.061Z,0.93
2022-08-12T14:03:06.373Z,1.08
2022-08-12T14:05:39.089Z,1.08
2022-08-12T14:08:07.524Z,1.10
2022-08-12T14:10:37.430Z,1.20
2022-08-12T14:13:10.378Z,1.35
2022-08-12T14:15:53.001Z,1.25
2022-08-12T14:18:25.116Z,1.30
2022-08-12T14:21:01.691Z,1.38
2022-08-12T14:24:05.415Z,1.20
2022-08-12T14:26:26.087Z,1.23
2022-08-12T14:28:57.757Z,0.80
2022-08-12T14:31:31.723Z,1.08
2022-08-12T14:33:59.799Z,1.30
2022-08-12T14:36:27.246Z,0.98
2022-08-12T14:38:55.947Z,0.95
2022-08-12T14:41:36.660Z,1.10
2022-08-12T14:44:59.741Z,1.50
2022-08-12T14:46:59.405Z,1.20
2022-08-12T14:50:37.105Z,3.90
2022-08-12T14:53:13.391Z,3.72
2022-08-12T14:57:58.046Z,1.40
2022-08-12T15:00:50.816Z,1.30
2022-08-12T15:03:23.275Z,1.17
2022-08-12T15:06:05.259Z,1.10
2022-08-12T15:08:35.495Z,1.20
2022-08-12T15:11:04.020Z,1.45
2022-08-12T15:13:32.636Z,1.60
2022-08-12T15:16:01.582Z,1.25
2022-08-12T15:18:30.205Z,1.25
2022-08-12T15:21:03.511Z,1.38
2022-08-12T15:23:32.951Z,1.55
2022-08-12T15:26:20.820Z,1.20
2022-08-12T15:28:54.959Z,1.30
2022-08-12T15:31:28.268Z,1.40
2022-08-12T15:34:11.397Z,1.48
2022-08-12T15:36:54.624Z,1.15
2022-08-12T15:39:22.823Z,1.35
2022-08-12T15:41:55.342Z,1.10
2022-08-12T15:44:41.538Z,1.00
2022-08-12T15:47:10.291Z,0.90
2022-08-12T15:49:54.610Z,1.23
2022-08-12T15:52:27.430Z,1.08
2022-08-12T15:54:58.529Z,1.15
2022-08-12T15:57:26.395Z,0.93
2022-08-12T16:00:06.812Z,1.13
2022-08-12T16:06:10.550Z,1.02
2022-08-12T16:07:51.176Z,0.82
2022-08-12T16:10:19.121Z,1.20
2022-08-12T16:13:05.479Z,0.77
2022-08-12T16:15:37.804Z,0.82
2022-08-12T16:18:20.424Z,0.90
2022-08-12T16:20:47.981Z,0.80
2022-08-12T16:23:50.930Z,0.90
2022-08-12T16:26:06.080Z,0.85
2022-08-12T16:28:42.221Z,0.90
2022-08-12T16:31:14.445Z,0.95
2022-08-12T16:33:58.978Z,0.80
2022-08-12T16:36:28.688Z,0.80
2022-08-12T16:38:55.818Z,0.90
2022-08-12T16:41:23.887Z,0.80
2022-08-12T16:43:52.941Z,0.85
2022-08-12T16:46:31.946Z,1.10
2022-08-12T16:49:09.402Z,0.95
2022-08-12T16:51:46.729Z,0.70
2022-08-12T16:54:16.216Z,0.98
2022-08-12T16:56:54.527Z,0.80
2022-08-12T16:59:26.297Z,0.88
2022-08-12T17:01:58.813Z,0.90
2022-08-12T17:04:27.872Z,0.90
2022-08-12T17:06:54.994Z,0.95
2022-08-12T17:09:22.684Z,0.80
2022-08-12T17:11:50.539Z,1.00
2022-08-12T17:14:23.224Z,1.48
2022-08-12T17:16:52.222Z,1.30
2022-08-12T17:19:20.169Z,0.90
2022-08-12T17:22:08.304Z,1.27
2022-08-12T17:24:36.610Z,1.42
2022-08-12T17:27:16.039Z,1.37
2022-08-12T17:30:02.097Z,1.15
2022-08-12T17:32:33.594Z,0.80
2022-08-12T17:35:19.543Z,1.10
2022-08-12T17:37:48.679Z,0.88
2022-08-12T17:40:34.438Z,0.82
2022-08-12T17:43:55.860Z,0.70
2022-08-12T17:45:59.090Z,0.80
2022-08-12T17:48:34.672Z,0.60
2022-08-12T17:51:12.478Z,0.90
2022-08-12T17:54:11.772Z,0.98
2022-08-12T17:56:32.223Z,0.90
2022-08-12T17:58:59.862Z,0.95
2022-08-12T18:01:29.143Z,0.70
2022-08-12T18:04:20.354Z,0.80
2022-08-12T18:06:49.215Z,0.80
2022-08-12T18:09:18.065Z,1.20
2022-08-12T18:12:07.967Z,1.20
2022-08-12T18:14:36.923Z,1.00
2022-08-12T18:17:08.770Z,1.08
2022-08-12T18:20:07.122Z,0.85
2022-08-12T18:22:40.769Z,1.40
2022-08-12T18:26:11.536Z,1.20
2022-08-12T18:28:02.007Z,1.50
2022-08-12T18:30:53.322Z,1.17
2022-08-12T18:33:26.055Z,1.30
2022-08-12T18:35:55.576Z,1.25
2022-08-12T18:38:25.242Z,1.00
2022-08-12T18:41:17.501Z,1.20
2022-08-12T18:44:00.047Z,0.90
2022-08-12T18:46:54.255Z,1.30
2022-08-12T18:49:40.666Z,1.27
2022-08-12T18:52:11.514Z,1.20
2022-08-12T18:54:53.324Z,1.20
2022-08-12T19:00:18.639Z,1.30
2022-08-12T19:02:49.034Z,1.13
2022-08-12T19:05:19.941Z,1.20
2022-08-12T19:08:00.132Z,1.20
2022-08-12T19:10:29.194Z,1.30
2022-08-12T19:13:23.530Z,1.23
2022-08-12T19:15:53.370Z,1.17
2022-08-12T19:18:21.901Z,1.02
2022-08-12T19:20:50.562Z,1.52
2022-08-12T19:23:21.366Z,1.58
2022-08-12T19:26:01.167Z,1.30
2022-08-12T19:28:35.596Z,1.33
2022-08-12T19:31:58.151Z,1.27
2022-08-12T19:37:26.898Z,1.25
2022-08-12T19:40:08.930Z,1.35
2022-08-12T19:42:44.942Z,1.25
2022-08-12T19:45:20.413Z,1.10
2022-08-12T19:47:49.566Z,1.20
2022-08-12T19:50:19.679Z,1.52
2022-08-12T19:52:47.100Z,1.10
2022-08-12T19:55:19.911Z,1.30
2022-08-12T19:58:01.622Z,1.40
2022-08-12T20:00:30.100Z,0.98
2022-08-12T20:03:00.466Z,1.10
2022-08-12T20:06:07.059Z,1.20
2022-08-12T20:08:27.902Z,1.00
2022-08-12T20:12:10.053Z,0.93
2022-08-12T20:14:00.253Z,1.20
2022-08-12T20:16:50.656Z,1.20
2022-08-12T20:19:16.057Z,0.90
2022-08-12T20:21:43.537Z,1.45
2022-08-12T20:24:14.549Z,1.20
2022-08-12T20:26:43.078Z,1.20
2022-08-12T20:29:13.755Z,1.13
2022-08-12T20:31:41.403Z,1.00
2022-08-12T20:34:08.990Z,1.15
2022-08-12T20:36:44.410Z,1.40
2022-08-12T20:39:37.508Z,1.10
2022-08-12T20:42:01.787Z,1.45
2022-08-12T20:44:34.343Z,1.20
2022-08-12T20:47:11.862Z,1.70
2022-08-12T20:49:45.915Z,1.38
2022-08-12T20:52:15.202Z,1.38
2022-08-12T20:54:50.027Z,1.35
2022-08-12T20:57:22.059Z,1.25
2022-08-12T20:59:51.929Z,1.10
2022-08-12T21:02:24.637Z,1.50
2022-08-12T21:05:20.139Z,1.10
2022-08-12T21:07:52.013Z,1.27
2022-08-12T21:10:21.016Z,1.20
2022-08-12T21:12:48.630Z,1.23
2022-08-12T21:15:23.614Z,1.25
2022-08-12T21:18:11.528Z,1.58
2022-08-12T21:20:52.905Z,1.27
2022-08-12T21:23:25.345Z,1.20
2022-08-12T21:25:56.652Z,1.27
2022-08-12T21:28:31.042Z,1.27
2022-08-12T21:32:37.939Z,1.10
2022-08-12T21:34:07.932Z,1.27
2022-08-12T21:36:37.170Z,1.20
2022-08-12T21:39:20.522Z,1.20
2022-08-12T21:41:53.064Z,1.05
2022-08-12T21:45:43.798Z,1.30
2022-08-12T21:47:20.951Z,1.30
2022-08-12T21:49:54.278Z,1.30
2022-08-12T21:52:28.391Z,1.00
2022-08-12T21:55:02.390Z,1.23
2022-08-12T21:57:36.499Z,1.20
2022-08-12T22:00:19.427Z,1.38
2022-08-12T22:03:05.125Z,1.20
2022-08-12T22:05:51.105Z,1.17
2022-08-12T22:08:22.211Z,1.30
2022-08-12T22:10:56.364Z,1.00
2022-08-12T22:14:07.011Z,1.23
2022-08-12T22:16:12.888Z,1.05
2022-08-12T22:18:41.286Z,1.30
2022-08-12T22:21:13.742Z,1.30
2022-08-12T22:24:04.524Z,1.30
2022-08-12T22:26:37.717Z,1.20
2022-08-12T22:29:27.452Z,1.20
2022-08-12T22:31:55.053Z,1.60
2022-08-12T22:34:29.357Z,1.10
2022-08-12T22:36:57.215Z,1.60
2022-08-12T22:39:26.496Z,1.25
2022-08-12T22:42:12.282Z,1.20
2022-08-12T22:44:58.175Z,1.20
2022-08-12T22:47:54.122Z,1.20
2022-08-12T22:50:28.707Z,1.33
2022-08-12T22:53:15.094Z,1.27
2022-08-12T22:56:00.364Z,1.17
2022-08-12T22:58:31.959Z,1.50
2022-08-12T23:01:02.433Z,1.48
2022-08-12T23:03:49.508Z,1.20
2022-08-12T23:06:23.115Z,1.40
2022-08-12T23:08:51.041Z,1.30
2022-08-12T23:11:23.791Z,1.55
2022-08-12T23:13:56.072Z,1.38
2022-08-12T23:16:30.898Z,1.05
2022-08-12T23:19:10.729Z,1.30
2022-08-12T23:22:06.017Z,1.40
2022-08-12T23:24:55.697Z,1.23
2022-08-12T23:27:50.550Z,1.25
2022-08-12T23:30:24.504Z,1.27
2022-08-12T23:32:54.668Z,1.02
2022-08-12T23:35:45.291Z,1.20
2022-08-12T23:38:19.016Z,1.30
2022-08-12T23:40:59.684Z,1.60
2022-08-12T23:43:27.049Z,1.50
2022-08-12T23:46:08.469Z,1.17
2022-08-12T23:48:35.836Z,1.40
2022-08-12T23:51:22.450Z,1.33
2022-08-12T23:53:54.678Z,1.30
2022-08-12T23:56:23.544Z,1.23
2022-08-12T23:58:52.865Z,1.38
